createdAt,value
2023-05-12T00:02:03.610Z,100801.15
2023-05-12T00:12:52.281Z,100802.66
2023-05-12T00:23:37.751Z,100801.73
2023-05-12T00:34:45.242Z,100802.29
2023-05-12T00:44:54.734Z,100806.98
2023-05-12T00:55:05.814Z,100816.14
2023-05-12T01:05:15.450Z,100820.98
2023-05-12T01:16:00.485Z,100826.23
2023-05-12T01:26:11.517Z,100829.14
2023-05-12T01:36:18.217Z,100831.27
2023-05-12T01:46:23.433Z,100837.84
2023-05-12T01:56:36.573Z,100840.34
2023-05-12T02:07:27.369Z,100854.80
2023-05-12T02:17:33.411Z,100858.19
2023-05-12T02:27:45.347Z,100866.90
2023-05-12T02:37:51.668Z,100875.48
2023-05-12T02:48:08.204Z,100879.42
2023-05-12T02:59:13.857Z,100877.55
2023-05-12T03:09:42.235Z,100884.34
2023-05-12T03:19:46.122Z,100882.91
2023-05-12T03:30:35.803Z,100882.85
2023-05-12T03:40:55.786Z,100887.07
2023-05-12T03:51:01.874Z,100889.24
2023-05-12T04:01:08.840Z,100897.52
2023-05-12T04:11:14.350Z,100893.63
2023-05-12T04:21:20.153Z,100896.15
2023-05-12T04:32:27.560Z,100902.20
2023-05-12T04:42:31.969Z,100903.09
2023-05-12T04:52:40.256Z,100902.65
2023-05-12T05:02:49.472Z,100910.48
2023-05-12T05:13:03.279Z,100914.42
2023-05-12T05:23:07.677Z,100916.08
2023-05-12T05:33:14.347Z,100920.84
2023-05-12T05:43:19.225Z,100926.14
2023-05-12T05:54:26.686Z,100936.66
2023-05-12T06:04:32.231Z,100946.53
2023-05-12T06:14:41.238Z,100950.67
2023-05-12T06:24:46.522Z,100956.59
2023-05-12T06:35:32.057Z,100959.05
2023-05-12T06:46:24.596Z,100965.63
2023-05-12T06:56:30.560Z,100960.98
2023-05-12T07:06:37.645Z,100955.48
2023-05-12T07:17:46.172Z,100955.27
2023-05-12T07:28:38.683Z,100953.83
2023-05-12T07:38:45.900Z,100951.52
2023-05-12T07:48:53.324Z,100950.20
2023-05-12T07:59:02.612Z,100952.34
2023-05-12T08:09:09.802Z,100952.83
2023-05-12T08:19:14.969Z,100959.83
2023-05-12T08:29:20.887Z,100962.64
2023-05-12T08:39:31.339Z,100963.22
2023-05-12T08:49:44.549Z,100959.78
2023-05-12T08:59:59.565Z,100958.41
2023-05-12T09:10:13.362Z,100954.36
2023-05-12T09:20:31.797Z,100951.44
2023-05-12T09:30:41.182Z,100942.55
2023-05-12T09:40:48.566Z,100931.39
2023-05-12T09:50:59.208Z,100929.10
2023-05-12T10:01:21.713Z,100928.05
2023-05-12T10:12:11.764Z,100925.32
2023-05-12T10:23:20.746Z,100918.54
2023-05-12T10:33:28.271Z,100913.52
2023-05-12T10:43:44.136Z,100911.92
2023-05-12T10:53:54.883Z,100909.21
2023-05-12T11:05:29.722Z,100905.53
2023-05-12T11:16:17.912Z,100897.80
2023-05-12T11:26:31.729Z,100882.00
2023-05-12T11:36:59.564Z,100886.80
2023-05-12T11:48:16.742Z,100878.77
2023-05-12T11:58:31.666Z,100883.33
2023-05-12T12:08:41.163Z,100878.35
2023-05-12T12:20:09.542Z,100870.21
2023-05-12T12:30:16.190Z,100858.97
2023-05-12T12:40:25.691Z,100862.51
2023-05-12T12:50:39.566Z,100856.23
2023-05-12T13:00:45.333Z,100846.94
2023-05-12T13:10:51.258Z,100844.53
2023-05-12T13:20:57.148Z,100832.05
2023-05-12T13:31:03.586Z,100826.19
2023-05-12T13:42:28.460Z,100818.61
2023-05-12T13:53:35.288Z,100806.41
2023-05-12T14:03:51.543Z,100807.14
2023-05-12T14:14:01.023Z,100808.92
2023-05-12T14:24:07.760Z,100804.77
2023-05-12T14:34:16.671Z,100798.57
2023-05-12T14:44:23.791Z,100794.08
2023-05-12T14:54:31.288Z,100788.81
2023-05-12T15:04:37.285Z,100781.35
2023-05-12T15:14:41.618Z,100790.89
2023-05-12T15:24:49.283Z,100788.28
2023-05-12T15:34:57.987Z,100784.29
2023-05-12T15:45:06.407Z,100787.11
2023-05-12T15:56:28.403Z,100778.39
2023-05-12T16:07:36.490Z,100790.77
2023-05-12T16:17:43.713Z,100787.59
2023-05-12T16:27:49.018Z,100782.06
2023-05-12T16:38:53.710Z,100779.32
2023-05-12T16:48:58.513Z,100781.45
2023-05-12T16:59:07.918Z,100783.00
2023-05-12T17:09:15.360Z,100781.36
2023-05-12T17:19:19.051Z,100780.46
2023-05-12T17:29:28.715Z,100786.56
2023-05-12T17:39:33.082Z,100793.60
2023-05-12T17:49:42.478Z,100797.30
2023-05-12T17:59:49.066Z,100801.23
2023-05-12T18:10:54.110Z,100802.57
2023-05-12T18:21:01.297Z,100816.41
2023-05-12T18:31:28.550Z,100829.61
2023-05-12T18:42:19.306Z,100837.35
2023-05-12T18:52:25.472Z,100841.95
2023-05-12T19:03:10.133Z,100846.80
2023-05-12T19:13:19.715Z,100854.54
2023-05-12T19:24:01.430Z,100860.70
2023-05-12T19:35:12.568Z,100870.05
2023-05-12T19:46:01.284Z,100872.56
2023-05-12T19:56:54.650Z,100873.38
2023-05-12T20:07:03.104Z,100877.61
2023-05-12T20:17:48.649Z,100878.52
2023-05-12T20:27:55.615Z,100873.00
2023-05-12T20:38:04.719Z,100875.33
2023-05-12T20:48:13.797Z,100881.82
2023-05-12T20:58:25.691Z,100876.05
2023-05-12T21:08:39.329Z,100882.54
2023-05-12T21:18:46.384Z,100890.57
2023-05-12T21:29:52.057Z,100900.80
2023-05-12T21:39:59.316Z,100903.31
2023-05-12T21:50:08.432Z,100900.64
2023-05-12T22:00:20.555Z,100905.63
2023-05-12T22:10:28.226Z,100909.46
2023-05-12T22:20:59.412Z,100907.69
2023-05-12T22:31:06.709Z,100901.94
2023-05-12T22:42:21.964Z,100904.07
2023-05-12T22:53:23.417Z,100908.19
2023-05-12T23:03:37.537Z,100900.73
2023-05-12T23:14:44.915Z,100899.30
2023-05-12T23:25:33.102Z,100898.87
2023-05-12T23:35:50.840Z,100904.05
2023-05-12T23:45:56.289Z,100898.60
2023-05-12T23:56:20.828Z,100899.78
